createdAt,value
2023-05-14T00:00:56.099Z,15.18
2023-05-14T00:03:23.946Z,15.15
2023-05-14T00:05:52.174Z,15.09
2023-05-14T00:08:21.364Z,15.07
2023-05-14T00:10:49.142Z,15.01
2023-05-14T00:13:16.893Z,14.95
2023-05-14T00:15:44.755Z,14.92
2023-05-14T00:18:12.930Z,14.87
2023-05-14T00:20:40.913Z,14.82
2023-05-14T00:23:08.666Z,14.75
2023-05-14T00:25:38.135Z,14.68
2023-05-14T00:28:06.230Z,14.64
2023-05-14T00:30:33.927Z,14.60
2023-05-14T00:33:01.791Z,14.58
2023-05-14T00:35:29.569Z,14.53
2023-05-14T00:37:57.417Z,14.52
2023-05-14T00:40:27.676Z,14.47
2023-05-14T00:42:57.045Z,14.42
2023-05-14T00:45:24.870Z,14.39
2023-05-14T00:47:52.777Z,14.37
2023-05-14T00:50:21.184Z,14.35
2023-05-14T00:52:49.097Z,14.32
2023-05-14T00:55:17.715Z,14.27
2023-05-14T00:57:45.841Z,14.20
2023-05-14T01:00:15.849Z,14.15
2023-05-14T01:02:43.791Z,14.12
2023-05-14T01:05:11.710Z,14.11
2023-05-14T01:07:49.503Z,14.09
2023-05-14T01:10:26.085Z,14.05
2023-05-14T01:13:09.319Z,14.00
2023-05-14T01:15:41.342Z,13.97
2023-05-14T01:18:11.072Z,13.91
2023-05-14T01:20:38.842Z,13.86
2023-05-14T01:23:07.940Z,13.85
2023-05-14T01:25:36.010Z,13.80
2023-05-14T01:28:13.651Z,13.79
2023-05-14T01:30:46.918Z,13.83
2023-05-14T01:33:18.213Z,13.83
2023-05-14T01:35:46.761Z,13.83
2023-05-14T01:38:20.017Z,13.79
2023-05-14T01:40:48.398Z,13.76
2023-05-14T01:43:17.099Z,13.73
2023-05-14T01:45:45.079Z,13.69
2023-05-14T01:48:12.869Z,13.67
2023-05-14T01:50:43.329Z,13.62
2023-05-14T01:53:15.002Z,13.55
2023-05-14T01:55:42.728Z,13.50
2023-05-14T01:58:10.601Z,13.44
2023-05-14T02:00:38.432Z,13.40
2023-05-14T02:03:06.207Z,13.38
2023-05-14T02:05:33.953Z,13.32
2023-05-14T02:08:01.726Z,13.29
2023-05-14T02:10:31.146Z,13.23
2023-05-14T02:12:58.824Z,13.20
2023-05-14T02:15:26.542Z,13.19
2023-05-14T02:17:54.415Z,13.15
2023-05-14T02:20:22.481Z,13.10
2023-05-14T02:22:50.407Z,13.04
2023-05-14T02:25:18.232Z,13.02
2023-05-14T02:27:47.940Z,13.00
2023-05-14T02:30:15.831Z,12.94
2023-05-14T02:32:43.611Z,12.94
2023-05-14T02:35:11.436Z,12.89
2023-05-14T02:37:41.565Z,12.84
2023-05-14T02:40:10.404Z,12.83
2023-05-14T02:42:38.251Z,12.80
2023-05-14T02:45:08.605Z,12.78
2023-05-14T02:47:38.157Z,12.77
2023-05-14T02:50:07.391Z,12.76
2023-05-14T02:52:37.392Z,12.75
2023-05-14T02:55:06.246Z,12.71
2023-05-14T02:57:34.015Z,12.65
2023-05-14T03:00:01.767Z,12.60
2023-05-14T03:02:31.232Z,12.58
2023-05-14T03:05:00.037Z,12.55
2023-05-14T03:07:27.716Z,12.50
2023-05-14T03:09:55.562Z,12.51
2023-05-14T03:12:23.357Z,12.50
2023-05-14T03:14:51.061Z,12.45
2023-05-14T03:17:18.796Z,12.43
2023-05-14T03:19:47.934Z,12.41
2023-05-14T03:22:15.767Z,12.40
2023-05-14T03:24:43.530Z,12.37
2023-05-14T03:27:11.358Z,12.35
2023-05-14T03:29:39.084Z,12.32
2023-05-14T03:32:07.917Z,12.31
2023-05-14T03:34:35.759Z,12.31
2023-05-14T03:37:05.188Z,12.28
2023-05-14T03:39:32.955Z,12.22
2023-05-14T03:42:00.697Z,12.22
2023-05-14T03:44:28.583Z,12.22
2023-05-14T03:46:56.315Z,12.22
2023-05-14T03:49:24.063Z,12.23
2023-05-14T03:51:51.786Z,12.22
2023-05-14T03:54:20.826Z,12.22
2023-05-14T03:56:48.512Z,12.20
2023-05-14T03:59:16.242Z,12.21
2023-05-14T04:01:44.776Z,12.21
2023-05-14T04:04:12.639Z,12.25
2023-05-14T04:06:40.452Z,12.26
2023-05-14T04:09:08.152Z,12.22
2023-05-14T04:11:37.448Z,12.24
2023-05-14T04:14:05.217Z,12.33
2023-05-14T04:16:32.998Z,12.39
2023-05-14T04:19:05.016Z,12.43
2023-05-14T04:21:32.983Z,12.46
2023-05-14T04:24:00.709Z,12.48
2023-05-14T04:26:28.401Z,12.51
2023-05-14T04:28:58.262Z,12.52
2023-05-14T04:31:26.047Z,12.55
2023-05-14T04:33:53.849Z,12.58
2023-05-14T04:36:21.564Z,12.61
2023-05-14T04:38:49.282Z,12.62
2023-05-14T04:41:17.126Z,12.67
2023-05-14T04:43:44.827Z,12.70
2023-05-14T04:46:14.056Z,12.70
2023-05-14T04:48:41.847Z,12.70
2023-05-14T04:51:09.575Z,12.70
2023-05-14T04:53:37.413Z,12.71
2023-05-14T04:56:05.145Z,12.70
2023-05-14T04:58:34.770Z,12.72
2023-05-14T05:01:03.901Z,12.76
2023-05-14T05:03:33.271Z,12.79
2023-05-14T05:06:01.110Z,12.85
2023-05-14T05:08:29.229Z,12.92
2023-05-14T05:10:56.912Z,13.07
2023-05-14T05:13:24.629Z,13.26
2023-05-14T05:15:52.425Z,13.50
2023-05-14T05:18:20.256Z,13.73
2023-05-14T05:20:49.364Z,13.96
2023-05-14T05:23:17.214Z,14.16
2023-05-14T05:25:45.023Z,14.31
2023-05-14T05:28:12.797Z,14.41
2023-05-14T05:30:41.372Z,14.46
2023-05-14T05:33:09.415Z,14.45
2023-05-14T05:35:37.328Z,14.35
2023-05-14T05:38:07.925Z,14.23
2023-05-14T05:40:35.744Z,14.16
2023-05-14T05:43:03.465Z,14.15
2023-05-14T05:45:31.374Z,14.13
2023-05-14T05:47:59.182Z,14.09
2023-05-14T05:50:27.236Z,14.12
2023-05-14T05:52:55.137Z,14.13
2023-05-14T05:55:24.420Z,14.12
2023-05-14T05:57:52.296Z,14.10
2023-05-14T06:00:21.159Z,14.10
2023-05-14T06:02:50.523Z,14.12
2023-05-14T06:05:19.374Z,14.19
2023-05-14T06:07:47.304Z,14.28
2023-05-14T06:10:15.134Z,14.39
2023-05-14T06:12:44.351Z,14.34
2023-05-14T06:15:13.235Z,14.38
2023-05-14T06:17:41.693Z,14.53
2023-05-14T06:20:10.507Z,14.69
2023-05-14T06:22:38.899Z,14.68
2023-05-14T06:25:07.708Z,14.81
2023-05-14T06:27:35.666Z,15.04
2023-05-14T06:30:07.633Z,15.23
2023-05-14T06:32:35.572Z,15.43
2023-05-14T06:35:04.190Z,15.61
2023-05-14T06:37:32.020Z,15.68
2023-05-14T06:39:59.799Z,15.86
2023-05-14T06:42:27.622Z,16.00
2023-05-14T06:44:56.122Z,16.13
2023-05-14T06:47:25.865Z,16.23
2023-05-14T06:49:53.748Z,16.38
2023-05-14T06:52:21.575Z,16.50
2023-05-14T06:54:49.516Z,16.65
2023-05-14T06:57:17.364Z,16.72
2023-05-14T06:59:45.198Z,16.78
2023-05-14T07:02:13.589Z,16.84
2023-05-14T07:04:42.845Z,16.63
2023-05-14T07:07:15.304Z,16.53
2023-05-14T07:09:43.436Z,16.57
2023-05-14T07:12:11.298Z,16.59
2023-05-14T07:14:39.454Z,16.71
2023-05-14T07:17:07.503Z,16.87
2023-05-14T07:19:35.728Z,17.04
2023-05-14T07:22:05.707Z,17.11
2023-05-14T07:24:33.671Z,17.06
2023-05-14T07:27:01.941Z,17.05
2023-05-14T07:29:30.192Z,17.08
2023-05-14T07:31:58.322Z,17.11
2023-05-14T07:34:26.178Z,17.16
2023-05-14T07:36:54.179Z,17.27
2023-05-14T07:39:23.494Z,17.31
2023-05-14T07:41:51.929Z,17.29
2023-05-14T07:44:20.171Z,17.35
2023-05-14T07:46:47.955Z,17.33
2023-05-14T07:49:15.913Z,17.45
2023-05-14T07:51:43.737Z,17.56
2023-05-14T07:54:11.799Z,17.70
2023-05-14T07:56:41.276Z,17.86
2023-05-14T07:59:09.113Z,17.97
2023-05-14T08:01:40.720Z,18.12
2023-05-14T08:04:08.739Z,18.20
2023-05-14T08:06:37.203Z,18.28
2023-05-14T08:09:08.750Z,18.35
2023-05-14T08:11:36.751Z,18.30
2023-05-14T08:14:05.884Z,18.40
2023-05-14T08:16:33.694Z,18.44
2023-05-14T08:19:01.523Z,18.52
2023-05-14T08:21:29.329Z,18.52
2023-05-14T08:23:57.108Z,18.62
2023-05-14T08:26:24.867Z,18.73
2023-05-14T08:28:53.794Z,18.81
2023-05-14T08:31:23.061Z,18.84
2023-05-14T08:33:51.037Z,18.98
2023-05-14T08:36:18.844Z,19.07
2023-05-14T08:38:46.544Z,19.19
2023-05-14T08:41:16.094Z,19.35
2023-05-14T08:43:46.965Z,19.54
2023-05-14T08:46:16.109Z,19.70
2023-05-14T08:48:52.229Z,19.80
2023-05-14T08:51:20.653Z,19.87
2023-05-14T08:53:49.215Z,19.94
2023-05-14T08:56:19.403Z,20.00
2023-05-14T08:58:47.241Z,20.14
2023-05-14T09:01:15.006Z,20.28
2023-05-14T09:03:43.730Z,20.39
2023-05-14T09:06:15.184Z,20.42
2023-05-14T09:08:43.349Z,20.25
2023-05-14T09:11:11.160Z,20.24
2023-05-14T09:13:39.791Z,20.29
2023-05-14T09:16:08.408Z,20.35
2023-05-14T09:18:37.515Z,20.52
2023-05-14T09:21:05.990Z,20.72
2023-05-14T09:23:35.484Z,20.68
2023-05-14T09:26:06.598Z,20.75
2023-05-14T09:28:34.407Z,20.73
2023-05-14T09:31:03.496Z,20.82
2023-05-14T09:33:31.511Z,20.81
2023-05-14T09:36:00.700Z,20.81
2023-05-14T09:38:31.824Z,20.92
2023-05-14T09:41:01.920Z,20.90
2023-05-14T09:43:29.641Z,21.01
2023-05-14T09:45:57.362Z,20.99
2023-05-14T09:48:25.136Z,21.01
2023-05-14T09:50:53.197Z,21.11
2023-05-14T09:53:21.019Z,21.12
2023-05-14T09:55:49.343Z,21.23
2023-05-14T09:58:18.719Z,21.34
2023-05-14T10:00:47.701Z,21.38
2023-05-14T10:03:18.832Z,21.47
2023-05-14T10:05:50.232Z,21.42
2023-05-14T10:08:24.333Z,21.58
2023-05-14T10:10:54.865Z,21.65
2023-05-14T10:13:31.556Z,21.74
2023-05-14T10:16:07.591Z,21.83
2023-05-14T10:18:41.127Z,21.91
2023-05-14T10:21:10.662Z,22.01
2023-05-14T10:23:40.544Z,22.01
2023-05-14T10:26:09.115Z,21.82
2023-05-14T10:28:38.831Z,21.58
2023-05-14T10:31:07.833Z,21.39
2023-05-14T10:33:48.023Z,21.58
2023-05-14T10:36:15.788Z,21.79
2023-05-14T10:38:49.828Z,21.91
2023-05-14T10:41:18.077Z,22.09
2023-05-14T10:43:48.360Z,22.11
2023-05-14T10:46:16.641Z,22.04
2023-05-14T10:48:45.300Z,22.04
2023-05-14T10:51:13.972Z,22.13
2023-05-14T10:53:43.471Z,22.28
2023-05-14T10:56:12.933Z,22.35
2023-05-14T10:58:44.038Z,22.50
2023-05-14T11:01:14.543Z,22.48
2023-05-14T11:03:45.054Z,22.73
2023-05-14T11:06:15.310Z,22.91
2023-05-14T11:08:44.004Z,23.17
2023-05-14T11:11:19.219Z,23.26
2023-05-14T11:13:47.572Z,23.45
2023-05-14T11:16:23.221Z,23.60
2023-05-14T11:19:01.677Z,23.81
2023-05-14T11:21:29.740Z,24.03
2023-05-14T11:23:58.244Z,24.23
2023-05-14T11:26:26.201Z,24.43
2023-05-14T11:28:54.175Z,24.62
2023-05-14T11:31:25.219Z,24.73
2023-05-14T11:33:54.277Z,24.76
2023-05-14T11:36:22.293Z,24.83
2023-05-14T11:38:52.264Z,24.74
2023-05-14T11:41:21.688Z,24.47
2023-05-14T11:43:49.614Z,24.48
2023-05-14T11:46:19.338Z,24.15
2023-05-14T11:48:49.410Z,24.16
2023-05-14T11:51:17.450Z,23.98
2023-05-14T11:53:49.364Z,23.83
2023-05-14T11:56:17.557Z,23.64
2023-05-14T11:58:58.164Z,23.63
2023-05-14T12:01:30.357Z,23.46
2023-05-14T12:04:05.566Z,23.23
2023-05-14T12:06:33.853Z,23.03
2023-05-14T12:09:02.262Z,23.08
2023-05-14T12:11:40.311Z,23.05
2023-05-14T12:14:13.316Z,23.10
2023-05-14T12:16:42.790Z,23.23
2023-05-14T12:19:13.500Z,23.45
2023-05-14T12:21:41.687Z,23.69
2023-05-14T12:24:14.130Z,23.99
2023-05-14T12:26:45.665Z,24.27
2023-05-14T12:29:18.147Z,24.41
2023-05-14T12:31:50.309Z,24.55
2023-05-14T12:34:19.341Z,24.70
2023-05-14T12:36:47.114Z,24.79
2023-05-14T12:39:15.148Z,24.38
2023-05-14T12:41:42.997Z,23.83
2023-05-14T12:44:11.090Z,23.35
2023-05-14T12:46:39.038Z,23.31
2023-05-14T12:49:07.539Z,23.07
2023-05-14T12:51:36.847Z,23.29
2023-05-14T12:54:05.012Z,23.43
2023-05-14T12:56:32.972Z,23.57
2023-05-14T12:59:00.830Z,23.53
2023-05-14T13:01:28.635Z,23.52
2023-05-14T13:03:56.606Z,23.75
2023-05-14T13:06:24.543Z,23.95
2023-05-14T13:08:53.884Z,24.03
2023-05-14T13:11:21.919Z,23.92
2023-05-14T13:13:49.828Z,24.01
2023-05-14T13:16:17.627Z,24.15
2023-05-14T13:18:45.626Z,24.30
2023-05-14T13:21:13.758Z,24.21
2023-05-14T13:23:41.706Z,24.47
2023-05-14T13:26:10.978Z,24.63
2023-05-14T13:28:39.464Z,24.59
2023-05-14T13:31:09.458Z,24.72
2023-05-14T13:33:41.997Z,24.66
2023-05-14T13:36:11.723Z,24.86
2023-05-14T13:38:39.585Z,25.05
2023-05-14T13:41:07.501Z,25.11
2023-05-14T13:43:37.225Z,24.83
2023-05-14T13:46:06.829Z,24.26
2023-05-14T13:48:36.085Z,23.93
2023-05-14T13:51:03.886Z,23.90
2023-05-14T13:53:31.792Z,23.76
2023-05-14T13:56:02.307Z,23.66
2023-05-14T13:58:30.700Z,23.63
2023-05-14T14:00:59.991Z,23.64
2023-05-14T14:03:27.953Z,23.57
2023-05-14T14:05:55.884Z,23.60
2023-05-14T14:08:24.503Z,23.79
2023-05-14T14:10:55.426Z,23.75
2023-05-14T14:13:24.522Z,23.86
2023-05-14T14:15:52.617Z,24.14
2023-05-14T14:18:22.192Z,24.30
2023-05-14T14:20:50.125Z,24.55
2023-05-14T14:23:17.949Z,24.49
2023-05-14T14:25:45.857Z,24.50
2023-05-14T14:28:13.796Z,24.54
2023-05-14T14:30:41.656Z,24.59
2023-05-14T14:33:09.599Z,24.59
2023-05-14T14:35:38.970Z,24.66
2023-05-14T14:38:06.800Z,24.35
2023-05-14T14:40:34.604Z,24.31
2023-05-14T14:43:03.169Z,24.29
2023-05-14T14:45:31.211Z,24.23
2023-05-14T14:48:23.693Z,24.07
2023-05-14T14:50:52.894Z,23.95
2023-05-14T14:53:20.902Z,23.91
2023-05-14T14:55:49.120Z,23.81
2023-05-14T14:58:17.112Z,23.86
2023-05-14T15:00:48.112Z,23.85
2023-05-14T15:03:17.269Z,23.87
2023-05-14T15:05:45.898Z,23.84
2023-05-14T15:08:16.598Z,23.96
2023-05-14T15:10:46.134Z,23.83
2023-05-14T15:13:14.657Z,23.81
2023-05-14T15:15:43.028Z,23.85
2023-05-14T15:18:11.502Z,23.96
2023-05-14T15:20:43.888Z,23.83
2023-05-14T15:23:15.458Z,23.84
2023-05-14T15:25:45.333Z,23.81
2023-05-14T15:28:13.271Z,23.75
2023-05-14T15:30:41.431Z,23.76
2023-05-14T15:33:12.318Z,23.80
2023-05-14T15:35:40.763Z,23.58
2023-05-14T15:38:08.899Z,23.58
2023-05-14T15:40:38.653Z,23.54
2023-05-14T15:43:06.943Z,23.56
2023-05-14T15:45:55.487Z,23.51
2023-05-14T15:48:31.205Z,23.35
2023-05-14T15:51:02.595Z,23.38
2023-05-14T15:53:36.824Z,23.30
2023-05-14T15:56:08.340Z,23.24
2023-05-14T15:58:38.506Z,23.11
2023-05-14T16:01:07.393Z,23.10
2023-05-14T16:03:35.757Z,23.33
2023-05-14T16:06:04.072Z,23.43
2023-05-14T16:08:37.537Z,23.32
2023-05-14T16:11:07.803Z,23.18
2023-05-14T16:13:38.560Z,23.06
2023-05-14T16:16:07.028Z,23.14
2023-05-14T16:18:35.116Z,23.18
2023-05-14T16:21:06.497Z,23.26
2023-05-14T16:23:34.488Z,23.20
2023-05-14T16:26:02.737Z,23.24
2023-05-14T16:28:32.770Z,23.05
2023-05-14T16:31:03.458Z,22.91
2023-05-14T16:33:31.992Z,22.82
2023-05-14T16:36:00.054Z,22.86
2023-05-14T16:38:28.401Z,22.84
2023-05-14T16:43:24.668Z,22.99
2023-05-14T16:45:54.182Z,22.70
2023-05-14T16:48:28.270Z,22.79
2023-05-14T16:51:12.800Z,22.90
2023-05-14T16:53:41.796Z,22.86
2023-05-14T16:56:10.036Z,22.87
2023-05-14T16:58:38.900Z,22.84
2023-05-14T17:01:10.248Z,22.85
2023-05-14T17:03:38.430Z,22.84
2023-05-14T17:06:06.964Z,22.68
2023-05-14T17:08:35.762Z,22.63
2023-05-14T17:11:05.998Z,22.64
2023-05-14T17:13:34.624Z,22.51
2023-05-14T17:16:02.963Z,22.56
2023-05-14T17:18:33.113Z,22.52
2023-05-14T17:21:01.115Z,22.52
2023-05-14T17:23:28.969Z,22.54
2023-05-14T17:25:56.939Z,22.53
2023-05-14T17:28:25.038Z,22.41
2023-05-14T17:30:52.924Z,22.35
2023-05-14T17:33:20.853Z,22.32
2023-05-14T17:35:50.508Z,22.34
2023-05-14T17:38:18.555Z,22.14
2023-05-14T17:40:46.647Z,22.08
2023-05-14T17:43:17.370Z,21.99
2023-05-14T17:48:20.771Z,21.96
2023-05-14T17:50:49.973Z,21.91
2023-05-14T17:53:18.087Z,21.89
2023-05-14T17:55:46.034Z,21.86
2023-05-14T17:58:33.361Z,21.90
2023-05-14T18:01:01.457Z,21.85
2023-05-14T18:03:29.759Z,21.83
2023-05-14T18:06:00.252Z,21.78
2023-05-14T18:08:28.028Z,21.78
2023-05-14T18:11:08.359Z,21.81
2023-05-14T18:13:36.722Z,21.77
2023-05-14T18:16:04.991Z,21.72
2023-05-14T18:18:33.004Z,21.71
2023-05-14T18:21:02.320Z,21.71
2023-05-14T18:23:30.160Z,21.69
2023-05-14T18:25:58.051Z,21.66
2023-05-14T18:28:26.462Z,21.60
2023-05-14T18:30:54.395Z,21.56
2023-05-14T18:33:22.199Z,21.53
2023-05-14T18:35:50.053Z,21.48
2023-05-14T18:38:19.888Z,21.39
2023-05-14T18:40:47.788Z,21.29
2023-05-14T18:43:16.776Z,21.27
2023-05-14T18:45:47.409Z,21.19
2023-05-14T18:48:16.257Z,21.15
2023-05-14T18:50:44.092Z,21.14
2023-05-14T18:53:11.986Z,21.13
2023-05-14T18:55:43.247Z,21.07
2023-05-14T18:58:11.327Z,21.01
2023-05-14T19:00:39.192Z,20.92
2023-05-14T19:03:07.252Z,20.84
2023-05-14T19:05:35.270Z,20.78
2023-05-14T19:08:03.235Z,20.74
2023-05-14T19:10:31.098Z,20.69
2023-05-14T19:13:00.526Z,20.66
2023-05-14T19:15:28.413Z,20.62
2023-05-14T19:17:56.467Z,20.54
2023-05-14T19:20:24.353Z,20.51
2023-05-14T19:22:52.176Z,20.44
2023-05-14T19:25:20.134Z,20.39
2023-05-14T19:27:51.072Z,20.38
2023-05-14T19:30:21.247Z,20.28
2023-05-14T19:32:54.747Z,20.20
2023-05-14T19:35:22.988Z,20.20
2023-05-14T19:37:51.038Z,20.18
2023-05-14T19:40:19.103Z,20.10
2023-05-14T19:42:46.942Z,20.05
2023-05-14T19:45:14.903Z,20.02
2023-05-14T19:47:44.260Z,19.98
2023-05-14T19:50:12.282Z,19.93
2023-05-14T19:52:40.123Z,19.83
2023-05-14T19:55:10.567Z,19.79
2023-05-14T19:57:39.159Z,19.75
2023-05-14T20:00:09.546Z,19.71
2023-05-14T20:02:37.813Z,19.69
2023-05-14T20:05:09.119Z,19.64
2023-05-14T20:07:38.953Z,19.59
2023-05-14T20:10:09.110Z,19.54
2023-05-14T20:12:37.192Z,19.52
2023-05-14T20:15:05.646Z,19.49
2023-05-14T20:17:33.831Z,19.44
2023-05-14T20:20:01.725Z,19.40
2023-05-14T20:22:30.912Z,19.40
2023-05-14T20:25:00.807Z,19.38
2023-05-14T20:27:28.696Z,19.37
2023-05-14T20:29:56.487Z,19.34
2023-05-14T20:32:25.146Z,19.27
2023-05-14T20:34:53.134Z,19.25
2023-05-14T20:37:21.595Z,19.21
2023-05-14T20:39:50.869Z,19.17
2023-05-14T20:42:18.732Z,19.14
2023-05-14T20:44:48.364Z,19.11
2023-05-14T20:47:20.120Z,19.08
2023-05-14T20:49:48.192Z,19.04
2023-05-14T20:52:16.602Z,19.01
2023-05-14T20:54:44.602Z,18.94
2023-05-14T20:57:15.346Z,18.90
2023-05-14T20:59:43.194Z,18.89
2023-05-14T21:02:13.455Z,18.84
2023-05-14T21:04:43.942Z,18.79
2023-05-14T21:07:11.967Z,18.74
2023-05-14T21:09:52.295Z,18.68
2023-05-14T21:12:21.781Z,18.67
2023-05-14T21:14:49.618Z,18.61
2023-05-14T21:17:17.434Z,18.61
2023-05-14T21:19:45.229Z,18.60
2023-05-14T21:22:14.009Z,18.56
2023-05-14T21:24:42.054Z,18.54
2023-05-14T21:27:09.925Z,18.49
2023-05-14T21:29:39.694Z,18.41
2023-05-14T21:32:08.120Z,18.31
2023-05-14T21:34:35.956Z,18.26
2023-05-14T21:37:04.005Z,18.16
2023-05-14T21:39:31.889Z,18.09
2023-05-14T21:41:59.603Z,18.11
2023-05-14T21:44:27.514Z,18.13
2023-05-14T21:46:56.868Z,18.10
2023-05-14T21:49:26.035Z,18.08
2023-05-14T21:51:54.656Z,18.07
2023-05-14T21:54:22.521Z,18.03
2023-05-14T21:56:50.516Z,17.99
2023-05-14T21:59:18.361Z,17.97
2023-05-14T22:02:05.585Z,17.98
2023-05-14T22:04:36.642Z,17.81
2023-05-14T22:07:05.012Z,17.74
2023-05-14T22:09:32.910Z,17.78
2023-05-14T22:12:00.822Z,17.82
2023-05-14T22:14:28.897Z,17.79
2023-05-14T22:16:56.817Z,17.78
2023-05-14T22:19:25.701Z,17.73
2023-05-14T22:21:55.270Z,17.67
2023-05-14T22:24:23.137Z,17.69
2023-05-14T22:26:51.759Z,17.60
2023-05-14T22:29:19.769Z,17.52
2023-05-14T22:31:47.672Z,17.45
2023-05-14T22:34:15.479Z,17.39
2023-05-14T22:36:43.411Z,17.40
2023-05-14T22:39:13.637Z,17.37
2023-05-14T22:41:41.640Z,17.25
2023-05-14T22:44:09.482Z,17.18
2023-05-14T22:46:37.593Z,17.16
2023-05-14T22:49:05.901Z,17.16
2023-05-14T22:51:33.660Z,17.06
2023-05-14T22:54:01.425Z,17.07
2023-05-14T22:56:30.870Z,17.06
2023-05-14T22:59:00.291Z,16.99
2023-05-14T23:01:28.381Z,16.94
2023-05-14T23:03:56.506Z,16.86
2023-05-14T23:06:25.669Z,16.85
2023-05-14T23:08:53.528Z,16.88
2023-05-14T23:11:21.444Z,16.86
2023-05-14T23:13:50.795Z,16.85
2023-05-14T23:16:18.700Z,16.76
2023-05-14T23:18:46.771Z,16.76
2023-05-14T23:21:15.058Z,16.68
2023-05-14T23:23:42.958Z,16.68
2023-05-14T23:26:10.795Z,16.66
2023-05-14T23:28:38.619Z,16.60
2023-05-14T23:31:07.942Z,16.56
2023-05-14T23:33:35.976Z,16.56
2023-05-14T23:36:04.866Z,16.58
2023-05-14T23:38:33.049Z,16.51
2023-05-14T23:41:00.844Z,16.46
2023-05-14T23:43:28.621Z,16.39
2023-05-14T23:45:56.787Z,16.42
2023-05-14T23:48:26.423Z,16.42
2023-05-14T23:50:54.181Z,16.38
2023-05-14T23:53:21.913Z,16.32
2023-05-14T23:55:50.104Z,16.27
2023-05-14T23:58:18.045Z,16.21
